Time;durP1;ratioP1;P1;durP2;ratioP2;P2;SDS_P1;SDS_P2;PMS_P1;PMS_P2;Temp;Humidity;BMP_temperature;BMP_pressure;BME280_temperature;BME280_humidity;BME280_pressure;Samples;Min_cycle;Max_cycle;Signal;HPM_P1;HPM_P2
2021/10/11 00:01:27;;;;;;;42.17;19.00;;;;;;;4.23;56.87;101605.27;126363;1099;104143;-78
2021/10/11 00:03:57;;;;;;;41.50;19.10;;;;;;;4.19;56.47;101605.80;126321;1099;104255;-78
2021/10/11 00:06:26;;;;;;;38.97;18.30;;;;;;;4.16;56.58;101600.36;126231;1099;105489;-78
2021/10/11 00:08:54;;;;;;;40.95;18.45;;;;;;;4.14;56.18;101598.56;126354;1098;104169;-78
2021/10/11 00:11:21;;;;;;;42.33;18.83;;;;;;;4.12;56.81;101594.02;126254;1099;104325;-78
2021/10/11 00:13:49;;;;;;;39.70;18.27;;;;;;;4.10;55.97;101596.50;126361;1099;104650;-78
2021/10/11 00:16:18;;;;;;;39.30;18.30;;;;;;;4.12;57.41;101594.02;126231;1099;104426;-78
2021/10/11 00:18:46;;;;;;;43.27;19.40;;;;;;;4.10;56.59;101598.20;126325;1099;104143;-78
2021/10/11 00:21:16;;;;;;;36.37;16.80;;;;;;;4.09;56.56;101604.17;126342;1097;104673;-78
2021/10/11 00:23:45;;;;;;;37.40;17.27;;;;;;;4.08;57.05;101595.48;126342;1099;104153;-78
2021/10/11 00:26:13;;;;;;;42.50;16.95;;;;;;;4.09;57.68;101597.27;126262;1099;104201;-77
2021/10/11 00:28:41;;;;;;;34.00;16.57;;;;;;;4.07;56.71;101595.36;126238;1099;104338;-78
2021/10/11 00:31:11;;;;;;;36.93;16.97;;;;;;;4.04;57.26;101585.63;126308;1099;104300;-77
2021/10/11 00:33:39;;;;;;;40.53;17.90;;;;;;;4.03;56.99;101588.09;126328;1099;104274;-78
2021/10/11 00:36:07;;;;;;;40.43;18.27;;;;;;;4.05;56.87;101586.52;126257;1099;104251;-77
2021/10/11 00:38:35;;;;;;;37.37;17.93;;;;;;;4.04;57.15;101582.13;126304;1099;104143;-79
2021/10/11 00:41:03;;;;;;;41.30;17.97;;;;;;;4.02;56.70;101578.48;126338;1099;104149;-79
2021/10/11 00:43:31;;;;;;;37.90;19.07;;;;;;;4.00;56.67;101567.08;126350;1099;104160;-78
2021/10/11 00:45:59;;;;;;;40.43;18.00;;;;;;;3.98;57.32;101568.66;126293;1099;104163;-78
2021/10/11 00:48:28;;;;;;;33.63;17.23;;;;;;;3.96;57.35;101571.13;126323;1098;104191;-79
2021/10/11 00:50:57;;;;;;;40.80;18.30;;;;;;;3.94;57.23;101568.41;126335;1099;104143;-79
2021/10/11 00:53:26;;;;;;;42.40;18.40;;;;;;;3.95;57.06;101570.20;126198;1099;104306;-78
2021/10/11 00:55:54;;;;;;;41.40;18.37;;;;;;;4.03;57.32;101577.71;126122;1099;104293;-78
2021/10/11 00:58:23;;;;;;;36.93;17.63;;;;;;;4.13;57.47;101580.27;126186;1099;104144;-79
2021/10/11 01:00:51;;;;;;;38.43;16.80;;;;;;;4.20;57.08;101574.74;126179;1099;104261;-78
2021/10/11 01:03:19;;;;;;;36.13;17.90;;;;;;;4.25;57.06;101576.00;126171;1099;104284;-78
2021/10/11 01:05:47;;;;;;;42.00;18.67;;;;;;;4.30;57.51;101569.49;125407;1099;104255;-78
2021/10/11 01:08:15;;;;;;;42.83;20.23;;;;;;;4.37;57.53;101578.66;125424;1099;111258;-77
2021/10/11 01:10:48;;;;;;;37.17;18.13;;;;;;;4.39;57.62;101560.59;126247;1098;104150;-78
2021/10/11 01:13:21;;;;;;;36.50;17.30;;;;;;;4.31;57.99;101560.89;126188;1099;104245;-79
2021/10/11 01:15:51;;;;;;;38.60;17.77;;;;;;;4.19;57.16;101557.36;126224;1099;104326;-78
2021/10/11 01:18:19;;;;;;;37.23;16.80;;;;;;;4.11;58.27;101548.05;126216;1099;104300;-78
2021/10/11 01:20:48;;;;;;;41.83;17.93;;;;;;;4.04;58.20;101549.26;126184;1099;104159;-78
2021/10/11 01:23:16;;;;;;;35.63;16.10;;;;;;;3.98;57.65;101556.56;126181;1099;104232;-79
2021/10/11 01:25:44;;;;;;;37.63;17.20;;;;;;;3.95;57.63;101554.63;126334;1099;104255;-79
2021/10/11 01:28:12;;;;;;;36.20;16.10;;;;;;;3.98;57.25;101555.67;126273;1096;104156;-78
2021/10/11 01:30:40;;;;;;;40.50;16.40;;;;;;;3.98;58.38;101550.48;126255;1098;104226;-78
2021/10/11 01:33:09;;;;;;;39.07;16.33;;;;;;;3.98;57.91;101547.88;126207;1099;104213;-79
2021/10/11 01:35:38;;;;;;;34.97;16.07;;;;;;;3.92;57.93;101549.19;126291;1099;104153;-78
2021/10/11 01:38:06;;;;;;;32.23;16.03;;;;;;;3.85;57.98;101541.72;126313;1099;104143;-78
2021/10/11 01:40:33;;;;;;;35.20;17.70;;;;;;;3.80;58.38;101535.23;126342;1099;104140;-78
2021/10/11 01:43:02;;;;;;;39.23;17.10;;;;;;;3.73;58.45;101531.25;126359;1099;104312;-78
2021/10/11 01:45:29;;;;;;;39.77;17.40;;;;;;;3.68;58.74;101529.98;126327;1099;104195;-79
2021/10/11 01:47:57;;;;;;;39.37;17.30;;;;;;;3.66;59.05;101525.45;126252;1098;104146;-78
2021/10/11 01:50:25;;;;;;;39.50;17.30;;;;;;;3.60;58.86;101518.09;126329;1099;104198;-78
2021/10/11 01:52:53;;;;;;;35.30;17.10;;;;;;;3.53;58.56;101514.08;126326;1099;104166;-77
2021/10/11 01:55:21;;;;;;;36.27;17.43;;;;;;;3.48;59.33;101512.81;126317;1098;104820;-77
2021/10/11 01:57:49;;;;;;;40.10;16.57;;;;;;;3.46;58.40;101513.47;126240;1099;104405;-77
2021/10/11 02:00:18;;;;;;;33.17;16.53;;;;;;;3.47;58.64;101516.18;126325;1099;104168;-78
2021/10/11 02:02:46;;;;;;;36.30;16.60;;;;;;;3.53;59.52;101514.08;126302;1097;104274;-78
2021/10/11 02:05:14;;;;;;;37.13;16.77;;;;;;;3.55;59.93;101509.94;126308;1099;104389;-78
2021/10/11 02:07:44;;;;;;;35.77;17.43;;;;;;;3.52;60.58;101504.50;126284;1099;104146;-77
2021/10/11 02:10:14;;;;;;;34.13;16.93;;;;;;;3.46;59.96;101506.61;126311;1099;104159;-78
2021/10/11 02:12:45;;;;;;;36.97;17.40;;;;;;;3.35;60.12;101518.72;126355;1099;104159;-78
2021/10/11 02:15:18;;;;;;;36.87;17.87;;;;;;;3.27;59.78;101513.67;126321;1099;104203;-78
2021/10/11 02:17:47;;;;;;;;;;;;;;;3.19;61.34;101502.67;126305;1099;104139;-78
2021/10/11 02:20:15;;;;;;;33.03;15.10;;;;;;;3.14;60.04;101497.11;126304;1099;104197;-78
2021/10/11 02:22:43;;;;;;;33.93;15.10;;;;;;;3.13;60.50;101492.73;126267;1099;104360;-78
2021/10/11 02:25:11;;;;;;;31.00;15.30;;;;;;;3.16;60.48;101492.05;126353;1098;104219;-78
2021/10/11 02:27:39;;;;;;;36.57;17.00;;;;;;;3.18;60.23;101486.22;126275;1099;104205;-78
2021/10/11 02:30:10;;;;;;;41.10;18.00;;;;;;;3.19;60.51;101489.70;126394;1097;104159;-78
2021/10/11 02:32:41;;;;;;;36.60;17.23;;;;;;;3.15;60.88;101479.89;126334;1099;104248;-79
2021/10/11 02:35:09;;;;;;;37.10;17.83;;;;;;;3.11;60.94;101481.30;126299;1097;104225;-78
2021/10/11 02:37:39;;;;;;;38.30;17.93;;;;;;;3.05;61.14;101479.14;126310;1099;105466;-77
2021/10/11 02:40:08;;;;;;;37.53;17.30;;;;;;;2.98;60.35;101479.41;126320;1099;104695;-77
2021/10/11 02:42:38;;;;;;;40.07;16.63;;;;;;;2.97;60.66;101479.28;126396;1099;104188;-78
2021/10/11 02:45:08;;;;;;;35.27;16.23;;;;;;;2.94;60.77;101477.33;126330;1099;104326;-77
2021/10/11 02:47:36;;;;;;;34.07;16.27;;;;;;;2.96;61.16;101472.27;126312;1099;104271;-78
2021/10/11 02:50:06;;;;;;;36.83;16.67;;;;;;;2.97;60.89;101467.21;126307;1099;104144;-78
2021/10/11 02:52:37;;;;;;;36.43;16.77;;;;;;;2.97;60.64;101464.62;126313;1099;104313;-78
2021/10/11 02:55:06;;;;;;;35.57;17.53;;;;;;;2.98;61.12;101458.66;126321;1099;104188;-78
2021/10/11 02:57:35;;;;;;;36.03;16.97;;;;;;;2.96;61.03;101462.83;126347;1099;104278;-78
2021/10/11 03:00:05;;;;;;;37.07;17.23;;;;;;;2.95;61.59;101460.11;126283;1099;104363;-78
2021/10/11 03:02:33;;;;;;;37.73;17.00;;;;;;;2.96;61.08;101456.71;126377;1099;104259;-78
2021/10/11 03:05:01;;;;;;;36.67;15.97;;;;;;;2.93;61.99;101453.87;126311;1099;104152;-78
2021/10/11 03:07:31;;;;;;;34.20;16.50;;;;;;;2.91;61.79;101448.56;126386;1099;104139;-78
2021/10/11 03:09:59;;;;;;;35.70;15.85;;;;;;;2.88;61.76;101449.23;126268;1099;104149;-78
2021/10/11 03:12:27;;;;;;;37.17;17.57;;;;;;;2.84;61.15;101441.98;126295;1099;104197;-78
2021/10/11 03:14:55;;;;;;;34.60;16.27;;;;;;;2.80;61.31;101439.01;126201;1099;104328;-78
2021/10/11 03:17:23;;;;;;;33.13;15.77;;;;;;;2.80;62.16;101439.01;126220;1099;104274;-79
2021/10/11 03:19:51;;;;;;;32.60;14.97;;;;;;;2.77;62.34;101439.66;126066;1099;104222;-78
2021/10/11 03:22:19;;;;;;;34.93;16.70;;;;;;;2.72;62.25;101442.67;126223;1099;104315;-78
2021/10/11 03:24:47;;;;;;;38.67;16.60;;;;;;;2.66;62.00;101440.47;126175;1099;104214;-77
2021/10/11 03:27:15;;;;;;;39.90;17.97;;;;;;;2.62;62.53;101446.20;126214;1099;104166;-78
2021/10/11 03:29:43;;;;;;;35.37;16.70;;;;;;;2.60;62.13;101452.91;126072;1099;104207;-78
2021/10/11 03:32:10;;;;;;;36.50;16.37;;;;;;;2.60;61.98;101451.25;126174;1099;104168;-77
2021/10/11 03:34:38;;;;;;;34.37;16.93;;;;;;;2.62;62.45;101459.16;125435;1099;104415;-79
2021/10/11 03:37:06;;;;;;;34.17;15.47;;;;;;;2.56;63.46;101451.77;126177;1099;104161;-78
2021/10/11 03:39:37;;;;;;;30.97;15.13;;;;;;;2.52;62.84;101447.09;126127;1099;104408;-78
2021/10/11 03:42:04;;;;;;;35.13;15.90;;;;;;;2.49;63.15;101458.13;126200;1098;104329;-77
2021/10/11 03:44:32;;;;;;;33.33;16.10;;;;;;;2.44;62.78;101453.33;126217;1099;104430;-78
2021/10/11 03:47:01;;;;;;;35.13;15.80;;;;;;;2.41;62.98;101453.97;126238;1099;104181;-78
2021/10/11 03:49:30;;;;;;;34.47;16.03;;;;;;;2.39;62.98;101460.72;126262;1099;104204;-78
2021/10/11 03:51:58;;;;;;;33.93;15.27;;;;;;;2.39;62.88;101459.83;126295;1099;104143;-78
2021/10/11 03:54:26;;;;;;;38.63;16.40;;;;;;;2.38;63.64;101458.90;126298;1099;104149;-78
2021/10/11 03:56:54;;;;;;;35.87;16.27;;;;;;;2.34;62.97;101455.16;126306;1099;104200;-78
2021/10/11 03:59:21;;;;;;;32.60;15.33;;;;;;;2.31;63.37;101457.48;126197;1099;104290;-79
2021/10/11 04:01:49;;;;;;;35.43;15.70;;;;;;;2.31;62.82;101454.00;126272;1099;104140;-77
2021/10/11 04:04:17;;;;;;;34.30;15.35;;;;;;;2.28;63.92;101457.23;126276;1099;104611;-78
2021/10/11 04:06:45;;;;;;;34.13;15.53;;;;;;;2.26;64.16;101460.45;126239;1099;104153;-79
2021/10/11 04:09:13;;;;;;;39.23;15.27;;;;;;;2.22;64.41;101455.81;126214;1099;104192;-78
2021/10/11 04:11:41;;;;;;;34.60;15.05;;;;;;;2.19;64.52;101451.27;126200;1099;118515;-78
2021/10/11 04:14:09;;;;;;;33.10;15.60;;;;;;;2.18;63.93;101453.73;126269;1099;104348;-79
2021/10/11 04:16:37;;;;;;;35.73;15.57;;;;;;;2.20;64.32;101453.09;126341;1098;104579;-78
2021/10/11 04:19:05;;;;;;;37.73;15.17;;;;;;;2.22;64.26;101445.45;126315;1099;104182;-78
2021/10/11 04:21:33;;;;;;;32.97;15.50;;;;;;;2.25;64.34;101443.13;126294;1099;104153;-79
2021/10/11 04:24:01;;;;;;;34.30;14.50;;;;;;;2.29;64.33;101445.17;126214;1099;104332;-79
2021/10/11 04:26:29;;;;;;;35.23;14.47;;;;;;;2.30;63.63;101442.71;126185;1099;104171;-80
2021/10/11 04:28:56;;;;;;;30.20;13.93;;;;;;;2.33;64.47;101447.25;126258;1099;104140;-78
2021/10/11 04:31:24;;;;;;;35.57;15.50;;;;;;;2.35;64.14;101458.64;126244;1099;104331;-77
2021/10/11 04:33:53;;;;;;;34.73;15.17;;;;;;;2.35;64.16;101448.28;126290;1099;104153;-76
2021/10/11 04:36:24;;;;;;;31.73;13.87;;;;;;;2.35;64.79;101448.28;126259;1097;104310;-77
2021/10/11 04:38:53;;;;;;;32.30;14.20;;;;;;;2.36;64.07;101452.69;126240;1099;104333;-78
2021/10/11 04:41:20;;;;;;;35.87;14.73;;;;;;;2.38;64.35;101447.64;126160;1099;104275;-78
2021/10/11 04:43:49;;;;;;;35.30;15.10;;;;;;;2.37;64.17;101445.81;126219;1098;102362;-77
2021/10/11 04:46:17;;;;;;;34.17;15.03;;;;;;;2.38;64.59;101445.05;126277;1099;104189;-77
2021/10/11 04:48:45;;;;;;;37.53;16.00;;;;;;;2.42;64.63;101442.84;126285;1097;104188;-78
2021/10/11 04:51:13;;;;;;;32.63;14.60;;;;;;;2.45;64.22;101449.98;126168;1099;104813;-78
2021/10/11 04:53:41;;;;;;;33.13;14.83;;;;;;;2.46;64.49;101439.74;126256;1098;104134;-78
2021/10/11 04:56:09;;;;;;;31.70;14.30;;;;;;;2.46;64.50;101444.92;126328;1099;104146;-78
2021/10/11 04:58:37;;;;;;;36.37;15.43;;;;;;;2.48;64.75;101451.13;126319;1099;104146;-77
2021/10/11 05:01:07;;;;;;;34.87;14.63;;;;;;;2.49;64.76;101457.20;126300;1099;104152;-78
2021/10/11 05:03:38;;;;;;;34.85;14.90;;;;;;;2.51;64.34;101451.38;126158;1099;104370;-79
2021/10/11 05:06:06;;;;;;;31.10;15.00;;;;;;;2.52;64.89;101452.28;126296;1099;104245;-77
2021/10/11 05:08:34;;;;;;;33.30;15.27;;;;;;;2.53;65.22;101451.52;126244;1097;104272;-78
2021/10/11 05:11:02;;;;;;;36.03;15.57;;;;;;;2.57;64.81;101447.48;126191;1099;104155;-77
2021/10/11 05:13:30;;;;;;;34.23;15.10;;;;;;;2.57;65.10;101445.81;126170;1099;104226;-76
2021/10/11 05:15:59;;;;;;;32.40;14.87;;;;;;;2.59;64.75;101448.53;126250;1099;104197;-77
2021/10/11 05:18:27;;;;;;;35.53;15.50;;;;;;;2.60;64.31;101450.33;126205;1099;104143;-78
2021/10/11 05:20:58;;;;;;;36.70;14.30;;;;;;;2.61;65.28;101437.49;126193;1099;104146;-76
2021/10/11 05:23:26;;;;;;;31.90;14.23;;;;;;;2.62;65.04;101434.14;126270;1099;104140;-77
2021/10/11 05:25:53;;;;;;;32.37;14.77;;;;;;;2.65;64.99;101429.20;126253;1099;104391;-76
2021/10/11 05:28:22;;;;;;;37.17;15.63;;;;;;;2.72;64.63;101433.20;126128;1099;104146;-78
2021/10/11 05:30:51;;;;;;;35.30;14.67;;;;;;;2.78;64.93;101427.63;126221;1099;104178;-78
2021/10/11 05:33:22;;;;;;;35.23;15.17;;;;;;;2.85;65.08;101423.06;125997;1099;111692;-76
2021/10/11 05:35:55;;;;;;;40.27;15.57;;;;;;;2.93;65.00;101422.76;126264;1099;104248;-76
2021/10/11 05:38:23;;;;;;;40.03;15.80;;;;;;;3.00;65.26;101419.89;126076;1099;104153;-78
2021/10/11 05:40:53;;;;;;;36.67;15.93;;;;;;;3.08;64.75;101421.41;126052;1099;104142;-77
2021/10/11 05:43:24;;;;;;;33.80;14.80;;;;;;;3.12;65.31;101425.17;126107;1099;104332;-78
2021/10/11 05:45:55;;;;;;;38.28;15.60;;;;;;;3.14;65.27;101419.30;125879;1099;104673;-80
2021/10/11 05:48:23;;;;;;;36.63;15.60;;;;;;;3.18;64.56;101429.16;125891;1099;104294;-79
2021/10/11 05:50:53;;;;;;;39.30;17.13;;;;;;;3.19;65.08;101425.75;125965;1099;104361;-80
2021/10/11 05:53:26;;;;;;;33.50;14.80;;;;;;;3.23;65.62;101422.64;125823;1099;104204;-76
2021/10/11 05:55:57;;;;;;;36.40;15.70;;;;;;;3.28;64.97;101419.52;126087;1099;104281;-77
2021/10/11 05:58:26;;;;;;;39.03;16.47;;;;;;;3.34;64.52;101420.90;126053;1099;104322;-77
2021/10/11 06:00:55;;;;;;;38.73;16.27;;;;;;;3.44;64.95;101419.93;125978;1099;104181;-78
2021/10/11 06:03:27;;;;;;;35.40;16.07;;;;;;;3.54;65.05;101414.69;125937;1098;104273;-77
2021/10/11 06:05:56;;;;;;;35.70;15.90;;;;;;;3.67;64.18;101420.84;126041;1099;104466;-77
2021/10/11 06:08:26;;;;;;;31.03;14.30;;;;;;;3.79;64.88;101416.61;126000;1099;104175;-79
2021/10/11 06:10:54;;;;;;;40.07;17.13;;;;;;;3.91;64.47;101407.17;126170;1099;104194;-79
2021/10/11 06:13:25;;;;;;;35.40;15.67;;;;;;;4.03;64.67;101404.59;126090;1099;104146;-81
2021/10/11 06:15:56;;;;;;;32.13;14.40;;;;;;;4.14;64.89;101400.21;126054;1099;104191;-78
2021/10/11 06:18:30;;;;;;;34.07;15.87;;;;;;;4.26;64.45;101408.05;125282;1099;104213;-78
2021/10/11 06:21:04;;;;;;;36.60;16.53;;;;;;;4.38;64.43;101415.84;125358;1099;104428;-76
2021/10/11 06:23:34;;;;;;;40.00;16.33;;;;;;;4.54;64.04;101417.91;125913;1099;104168;-77
2021/10/11 06:26:03;;;;;;;36.43;15.77;;;;;;;4.66;64.51;101416.23;126003;1099;104162;-76
2021/10/11 06:28:31;;;;;;;32.80;16.57;;;;;;;4.79;64.27;101410.23;125975;1099;104765;-77
2021/10/11 06:31:00;;;;;;;36.90;16.77;;;;;;;4.92;64.54;101407.71;126012;1099;104166;-77
2021/10/11 06:33:28;;;;;;;37.47;17.07;;;;;;;5.03;64.17;101409.42;125354;1099;104210;-78
2021/10/11 06:35:56;;;;;;;37.03;16.90;;;;;;;5.13;64.78;101410.09;126150;1099;104150;-78
2021/10/11 06:38:25;;;;;;;37.63;17.73;;;;;;;5.23;64.31;101407.33;126065;1099;104143;-76
2021/10/11 06:40:55;;;;;;;40.60;17.10;;;;;;;5.35;64.30;101405.61;125330;1100;104290;-75
2021/10/11 06:43:23;;;;;;;37.93;17.20;;;;;;;5.49;64.36;101397.88;126080;1099;104283;-76
2021/10/11 06:45:53;;;;;;;38.50;16.33;;;;;;;5.62;64.03;101392.72;126137;1099;104453;-77
2021/10/11 06:48:22;;;;;;;33.73;16.27;;;;;;;5.80;63.78;101400.00;126128;1099;104579;-77
2021/10/11 06:50:52;;;;;;;36.33;16.53;;;;;;;5.96;63.86;101401.98;126214;1099;104277;-77
2021/10/11 06:53:21;;;;;;;36.63;15.73;;;;;;;6.13;63.83;101396.25;126223;1098;104322;-76
2021/10/11 06:55:51;;;;;;;38.33;16.50;;;;;;;6.28;63.29;101392.08;126203;1099;104185;-77
2021/10/11 06:58:20;;;;;;;39.33;16.00;;;;;;;6.47;63.21;101391.59;126357;1099;104278;-77
2021/10/11 07:00:49;;;;;;;36.67;16.33;;;;;;;6.61;62.99;101391.61;126123;1098;104155;-78
2021/10/11 07:03:24;;;;;;;34.80;15.10;;;;;;;6.74;62.94;101390.70;126160;1099;104175;-76
2021/10/11 07:05:58;;;;;;;35.52;15.13;;;;;;;6.85;63.03;101387.08;126209;1099;104418;-77
2021/10/11 07:08:26;;;;;;;35.20;15.35;;;;;;;6.95;62.17;101381.66;126181;1099;104807;-78
2021/10/11 07:10:56;;;;;;;30.53;13.53;;;;;;;7.08;62.27;101385.06;126325;1098;104134;-76
2021/10/11 07:13:26;;;;;;;33.60;15.00;;;;;;;7.19;61.98;101387.53;126170;1097;104172;-78
2021/10/11 07:15:58;;;;;;;39.33;15.77;;;;;;;7.29;62.09;101378.59;126238;1099;104166;-78
2021/10/11 07:18:29;;;;;;;37.23;15.30;;;;;;;7.40;61.98;101367.91;126083;1099;104685;-80
2021/10/11 07:21:03;;;;;;;32.00;14.77;;;;;;;7.54;61.50;101370.58;126113;1099;104149;-79
2021/10/11 07:23:35;;;;;;;32.83;14.87;;;;;;;7.67;61.22;101368.72;126220;1099;104172;-78
2021/10/11 07:26:07;;;;;;;;;;;;;;;7.75;58.99;101364.86;126183;1099;104194;-80
2021/10/11 07:28:37;;;;;;;32.13;14.37;;;;;;;7.90;60.14;101365.79;126092;1099;104143;-78
2021/10/11 07:31:10;;;;;;;36.27;15.00;;;;;;;8.04;60.11;101360.47;126234;1099;104152;-76
2021/10/11 07:33:38;;;;;;;;;;;;;;;8.16;57.91;101358.58;126208;1099;104216;-77
2021/10/11 07:36:10;;;;;;;34.90;14.37;;;;;;;8.25;60.20;101356.52;126122;1099;104166;-77
2021/10/11 07:38:41;;;;;;;33.77;14.63;;;;;;;8.38;60.17;101359.84;126189;1099;104268;-78
2021/10/11 07:41:09;;;;;;;33.67;15.10;;;;;;;8.49;59.53;101353.55;126227;1099;104156;-77
2021/10/11 07:43:40;;;;;;;33.70;14.97;;;;;;;8.61;59.33;101355.98;126192;1099;104131;-78
2021/10/11 07:46:11;;;;;;;39.43;15.73;;;;;;;8.72;59.82;101333.05;125203;1099;104293;-79
2021/10/11 07:48:46;;;;;;;36.70;16.00;;;;;;;8.88;58.63;101330.48;125259;1099;104213;-78
2021/10/11 07:51:19;;;;;;;36.90;15.37;;;;;;;9.04;58.21;101318.22;125332;1099;104303;-78
2021/10/11 07:53:47;;;;;;;;;;;;;;;9.20;56.53;101319.98;125250;1099;104207;-78
2021/10/11 07:56:18;;;;;;;35.77;15.03;;;;;;;9.30;58.73;101317.94;125280;1100;104259;-78
2021/10/11 07:58:50;;;;;;;38.40;16.60;;;;;;;9.42;58.27;101319.41;125247;1099;102228;-77
2021/10/11 08:01:21;;;;;;;36.83;15.70;;;;;;;9.55;57.77;101313.98;125260;1102;104201;-79
2021/10/11 08:03:58;;;;;;;36.37;15.67;;;;;;;9.69;58.37;101305.16;125211;1099;104401;-79
2021/10/11 08:06:29;;;;;;;34.20;16.00;;;;;;;9.84;57.33;101306.75;125163;1102;104614;-77
2021/10/11 08:08:59;;;;;;;33.87;16.73;;;;;;;9.96;57.49;101304.77;125194;1099;104250;-79
2021/10/11 08:11:30;;;;;;;37.00;16.43;;;;;;;10.00;55.52;101296.25;125214;1099;104232;-80
2021/10/11 08:14:02;;;;;;;37.67;16.13;;;;;;;10.14;56.91;101298.64;125250;1099;104271;-79
2021/10/11 08:16:33;;;;;;;34.10;14.77;;;;;;;10.29;56.53;101303.77;125338;1102;104246;-79
2021/10/11 08:19:05;;;;;;;32.67;15.50;;;;;;;10.45;56.96;101298.47;125501;1099;104168;-78
2021/10/11 08:21:37;;;;;;;36.80;15.97;;;;;;;10.61;56.25;101286.98;126097;1099;104300;-79
2021/10/11 08:24:07;;;;;;;40.80;17.97;;;;;;;10.80;56.51;101275.66;125998;1099;104332;-78
2021/10/11 08:27:18;;;;;;;46.73;19.97;;;;;;;10.93;56.55;101269.25;126169;1099;104277;-80
2021/10/11 08:29:52;;;;;;;45.23;19.50;;;;;;;11.10;56.00;101273.54;126287;1099;105332;-81
2021/10/11 08:32:38;;;;;;;43.77;17.90;;;;;;;11.29;55.80;101277.01;126180;1099;104280;-78
2021/10/11 08:35:13;;;;;;;37.83;17.00;;;;;;;11.43;55.58;101270.63;126038;1099;104666;-79
2021/10/11 08:37:44;;;;;;;40.43;16.87;;;;;;;11.58;54.94;101266.91;126094;1099;104178;-77
2021/10/11 08:40:22;;;;;;;38.65;16.40;;;;;;;11.74;55.09;101266.73;126273;1099;104735;-76
2021/10/11 08:43:02;;;;;;;35.43;16.37;;;;;;;11.91;54.84;101271.83;126181;1097;104162;-77
2021/10/11 08:45:55;;;;;;;33.03;14.43;;;;;;;12.05;54.37;101255.80;126142;1099;104171;-78
2021/10/11 08:48:31;;;;;;;32.60;15.03;;;;;;;12.21;54.44;101252.06;126014;1099;104316;-76
2021/10/11 08:51:01;;;;;;;32.30;14.87;;;;;;;12.29;54.38;101251.49;126047;1099;104673;-76
2021/10/11 08:53:32;;;;;;;32.63;14.20;;;;;;;12.37;53.62;101253.61;126251;1099;104175;-76
2021/10/11 08:56:14;;;;;;;30.37;13.97;;;;;;;12.46;53.60;101247.80;125991;1099;104206;-79
2021/10/11 08:58:47;;;;;;;34.83;14.83;;;;;;;12.53;51.24;101243.70;126155;1099;104150;-78
2021/10/11 09:01:22;;;;;;;34.03;14.13;;;;;;;12.64;52.60;101242.38;126245;1099;104143;-78
2021/10/11 09:03:55;;;;;;;31.03;14.53;;;;;;;12.76;52.41;101237.59;126174;1099;104431;-77
2021/10/11 09:06:26;;;;;;;34.90;14.33;;;;;;;12.91;52.58;101236.38;126088;1099;104140;-78
2021/10/11 09:09:10;;;;;;;30.60;13.83;;;;;;;13.03;52.54;101236.84;126076;1099;104198;-77
2021/10/11 09:11:39;;;;;;;29.00;13.28;;;;;;;13.14;52.01;101229.33;125965;1098;104144;-78
2021/10/11 09:14:09;;;;;;;35.75;13.10;;;;;;;13.22;51.57;101232.25;125960;1099;104316;-77
2021/10/11 09:16:42;;;;;;;33.60;13.20;;;;;;;13.25;50.34;101222.70;125919;1099;104318;-78
2021/10/11 09:19:15;;;;;;;28.00;12.80;;;;;;;13.33;50.31;101225.66;126227;1099;104369;-78
2021/10/11 09:21:46;;;;;;;31.73;13.17;;;;;;;13.41;50.25;101218.02;126185;1099;104189;-77
2021/10/11 09:24:21;;;;;;;30.40;12.73;;;;;;;13.50;49.85;101215.71;126196;1098;104210;-79
2021/10/11 09:26:56;;;;;;;29.18;12.68;;;;;;;13.61;50.46;101206.42;125958;1099;104220;-79
2021/10/11 09:29:31;;;;;;;28.60;13.03;;;;;;;13.72;50.37;101214.70;126080;1099;104172;-77
2021/10/11 09:32:08;;;;;;;28.83;12.67;;;;;;;13.82;48.97;101206.28;126187;1099;104197;-79
2021/10/11 09:34:41;;;;;;;28.67;12.93;;;;;;;13.89;49.48;101202.09;126106;1099;104220;-77
2021/10/11 09:37:14;;;;;;;28.40;11.03;;;;;;;13.95;48.63;101193.50;126223;1099;104191;-78
2021/10/11 09:39:43;;;;;;;26.13;11.47;;;;;;;14.00;48.42;101184.87;126115;1099;104140;-73
2021/10/11 09:42:16;;;;;;;29.07;11.63;;;;;;;14.07;48.89;101178.07;126093;1099;104201;-76
2021/10/11 09:45:00;;;;;;;23.97;10.40;;;;;;;14.16;48.00;101177.45;126117;1099;104150;-77
2021/10/11 09:47:35;;;;;;;23.27;9.93;;;;;;;14.23;46.00;101165.33;126112;1099;104242;-79
2021/10/11 09:50:08;;;;;;;23.70;10.17;;;;;;;14.31;46.90;101167.38;125971;1099;102236;-79
2021/10/11 09:52:41;;;;;;;20.97;9.80;;;;;;;14.33;42.92;101165.66;126081;1098;104277;-77
2021/10/11 09:55:14;;;;;;;28.77;10.68;;;;;;;14.39;44.36;101157.94;126020;1099;104268;-77
2021/10/11 09:57:43;;;;;;;25.47;10.70;;;;;;;14.52;44.33;101147.75;125997;1099;104194;-77
2021/10/11 10:00:14;;;;;;;22.17;9.40;;;;;;;14.59;44.72;101144.45;126150;1099;104150;-79
2021/10/11 10:02:47;;;;;;;23.17;9.73;;;;;;;14.67;44.30;101145.59;126067;1099;104191;-77
2021/10/11 10:05:18;;;;;;;18.73;9.13;;;;;;;14.73;44.24;101145.77;126041;1099;104329;-79
2021/10/11 10:07:52;;;;;;;21.95;10.20;;;;;;;14.77;43.67;101137.94;126168;1099;104216;-77
2021/10/11 10:10:22;;;;;;;20.73;9.27;;;;;;;14.83;44.38;101132.83;126244;1099;104214;-76
2021/10/11 10:12:52;;;;;;;28.63;9.77;;;;;;;14.88;44.31;101129.48;126173;1099;104185;-77
2021/10/11 10:15:32;;;;;;;24.73;9.57;;;;;;;14.90;44.59;101125.13;125986;1099;104144;-77
2021/10/11 10:18:07;;;;;;;21.73;8.70;;;;;;;14.91;42.27;101120.72;125993;1099;104358;-77
2021/10/11 10:20:35;;;;;;;;;;;;;;;14.92;38.29;101122.52;126086;1097;104139;-78
2021/10/11 10:23:04;;;;;;;19.17;8.63;;;;;;;15.02;42.45;101121.02;125974;1099;104170;-79
2021/10/11 10:25:57;;;;;;;21.50;9.55;;;;;;;15.12;42.12;101111.62;125872;1099;104255;-78
2021/10/11 10:28:29;;;;;;;20.03;8.83;;;;;;;15.18;42.31;101106.50;125881;1098;104140;-77
2021/10/11 10:31:02;;;;;;;21.63;8.20;;;;;;;15.16;39.14;101108.18;125858;1099;104312;-76
2021/10/11 10:33:36;;;;;;;19.27;8.73;;;;;;;15.17;40.14;101105.58;126075;1099;104149;-77
2021/10/11 10:36:06;;;;;;;22.40;7.90;;;;;;;15.25;40.44;101096.12;126104;1100;104216;-78
2021/10/11 10:38:35;;;;;;;20.23;8.63;;;;;;;15.32;40.71;101099.81;125333;1099;104022;-77
2021/10/11 10:41:07;;;;;;;16.80;8.00;;;;;;;15.39;40.79;101093.80;125343;1099;104261;-76
2021/10/11 10:43:47;;;;;;;17.93;7.83;;;;;;;15.44;39.85;101088.63;126109;1099;104504;-76
2021/10/11 10:46:17;;;;;;;21.80;8.27;;;;;;;15.51;39.84;101085.30;125981;1099;104291;-77
2021/10/11 10:48:54;;;;;;;19.63;8.23;;;;;;;15.60;40.10;101084.64;125912;1099;104251;-78
2021/10/11 10:51:25;;;;;;;17.03;8.40;;;;;;;15.60;37.91;101077.59;125214;1099;104249;-79
2021/10/11 10:53:56;;;;;;;24.53;9.10;;;;;;;15.67;39.84;101078.63;125308;1099;104307;-78
2021/10/11 10:56:28;;;;;;;25.23;9.30;;;;;;;15.73;39.29;101077.89;125828;1099;104440;-78
2021/10/11 10:59:06;;;;;;;23.13;8.80;;;;;;;15.77;38.31;101067.45;125972;1099;104281;-79
2021/10/11 11:01:36;;;;;;;20.87;8.63;;;;;;;15.80;37.77;101064.88;126063;1099;104319;-76
2021/10/11 11:04:12;;;;;;;19.77;8.33;;;;;;;15.84;38.48;101060.53;126140;1099;104306;-76
2021/10/11 11:06:43;;;;;;;18.60;8.40;;;;;;;15.87;37.05;101057.08;125321;1099;104329;-75
2021/10/11 11:09:15;;;;;;;18.97;8.90;;;;;;;15.87;37.48;101049.14;126108;1099;104261;-77
2021/10/11 11:14:37;;;;;;;19.83;9.07;;;;;;;15.91;37.76;101045.68;126172;1099;104216;-76
2021/10/11 11:19:54;;;;;;;20.10;8.80;;;;;;;15.94;37.50;101043.10;125337;1102;104277;-77
2021/10/11 11:22:34;;;;;;;22.73;9.07;;;;;;;15.96;37.68;101036.12;126103;1099;104334;-76